sensor_id;sensor_type;location;lat;lon;timestamp;pressure;altitude;pressure_sealevel;temperature;humidity
6349;BME280;3207;42.648;23.406;2023-04-21T00:02:24;99898.75;;;13.10;nan
6349;BME280;3207;42.648;23.406;2023-04-21T00:04:51;99887.16;;;13.13;nan
6349;BME280;3207;42.648;23.406;2023-04-21T00:07:18;99893.25;;;13.13;nan
6349;BME280;3207;42.648;23.406;2023-04-21T00:09:46;99894.91;;;13.14;nan
6349;BME280;3207;42.648;23.406;2023-04-21T00:12:15;99893.00;;;13.16;nan
6349;BME280;3207;42.648;23.406;2023-04-21T00:14:41;99885.38;;;13.13;nan
6349;BME280;3207;42.648;23.406;2023-04-21T00:17:08;99891.31;;;13.15;nan
6349;BME280;3207;42.648;23.406;2023-04-21T00:19:35;99894.41;;;13.21;nan
6349;BME280;3207;42.648;23.406;2023-04-21T00:22:02;99891.06;;;13.18;nan
6349;BME280;3207;42.648;23.406;2023-04-21T00:24:29;99891.91;;;13.19;nan
6349;BME280;3207;42.648;23.406;2023-04-21T00:26:55;99887.16;;;13.13;nan
6349;BME280;3207;42.648;23.406;2023-04-21T00:29:23;99886.28;;;13.24;nan
6349;BME280;3207;42.648;23.406;2023-04-21T00:31:50;99880.63;;;13.28;nan
6349;BME280;3207;42.648;23.406;2023-04-21T00:34:17;99888.09;;;13.33;nan
6349;BME280;3207;42.648;23.406;2023-04-21T00:36:44;99874.75;;;13.45;nan
6349;BME280;3207;42.648;23.406;2023-04-21T00:39:11;99878.19;;;13.46;nan
6349;BME280;3207;42.648;23.406;2023-04-21T00:41:38;99872.41;;;13.52;nan
6349;BME280;3207;42.648;23.406;2023-04-21T00:44:06;99881.97;;;13.53;nan
6349;BME280;3207;42.648;23.406;2023-04-21T00:46:35;99879.63;;;13.60;nan
6349;BME280;3207;42.648;23.406;2023-04-21T00:49:04;99863.28;;;13.56;nan
6349;BME280;3207;42.648;23.406;2023-04-21T00:51:36;99876.03;;;13.61;nan
6349;BME280;3207;42.648;23.406;2023-04-21T00:54:10;99879.63;;;13.60;nan
6349;BME280;3207;42.648;23.406;2023-04-21T00:56:45;99874.91;;;13.53;nan
6349;BME280;3207;42.648;23.406;2023-04-21T00:59:12;99877.81;;;13.50;nan
6349;BME280;3207;42.648;23.406;2023-04-21T01:01:40;99877.22;;;13.47;nan
6349;BME280;3207;42.648;23.406;2023-04-21T01:04:07;99873.72;;;13.37;nan
6349;BME280;3207;42.648;23.406;2023-04-21T01:06:34;99880.94;;;13.35;nan
6349;BME280;3207;42.648;23.406;2023-04-21T01:09:02;99870.38;;;13.25;nan
6349;BME280;3207;42.648;23.406;2023-04-21T01:11:29;99868.78;;;13.34;nan
6349;BME280;3207;42.648;23.406;2023-04-21T01:13:56;99862.50;;;13.25;nan
6349;BME280;3207;42.648;23.406;2023-04-21T01:16:23;99865.69;;;13.29;nan
6349;BME280;3207;42.648;23.406;2023-04-21T01:18:52;99865.44;;;13.32;nan
6349;BME280;3207;42.648;23.406;2023-04-21T01:21:19;99868.22;;;13.40;nan
6349;BME280;3207;42.648;23.406;2023-04-21T01:23:48;99866.81;;;13.36;nan
6349;BME280;3207;42.648;23.406;2023-04-21T01:26:16;99862.72;;;13.43;nan
6349;BME280;3207;42.648;23.406;2023-04-21T01:28:43;99869.06;;;13.40;nan
6349;BME280;3207;42.648;23.406;2023-04-21T01:31:12;99859.22;;;13.33;nan
6349;BME280;3207;42.648;23.406;2023-04-21T01:33:39;99859.09;;;13.34;nan
6349;BME280;3207;42.648;23.406;2023-04-21T01:36:06;99846.63;;;13.27;nan
6349;BME280;3207;42.648;23.406;2023-04-21T01:38:40;99859.03;;;13.25;nan
6349;BME280;3207;42.648;23.406;2023-04-21T01:41:09;99852.28;;;13.22;nan
6349;BME280;3207;42.648;23.406;2023-04-21T01:43:36;99855.03;;;13.21;nan
6349;BME280;3207;42.648;23.406;2023-04-21T01:46:03;99848.00;;;13.21;nan
6349;BME280;3207;42.648;23.406;2023-04-21T01:48:30;99853.78;;;13.25;nan
6349;BME280;3207;42.648;23.406;2023-04-21T01:50:57;99850.19;;;13.26;nan
6349;BME280;3207;42.648;23.406;2023-04-21T01:53:24;99835.75;;;13.10;nan
6349;BME280;3207;42.648;23.406;2023-04-21T01:55:51;99853.75;;;13.15;nan
6349;BME280;3207;42.648;23.406;2023-04-21T01:58:19;99852.41;;;13.00;nan
6349;BME280;3207;42.648;23.406;2023-04-21T02:00:46;99864.91;;;12.87;nan
6349;BME280;3207;42.648;23.406;2023-04-21T02:03:13;99860.81;;;12.73;nan
6349;BME280;3207;42.648;23.406;2023-04-21T02:05:40;99864.72;;;12.58;nan
6349;BME280;3207;42.648;23.406;2023-04-21T02:08:06;99861.22;;;12.68;nan
6349;BME280;3207;42.648;23.406;2023-04-21T02:10:33;99860.13;;;12.71;nan
6349;BME280;3207;42.648;23.406;2023-04-21T02:13:00;99845.97;;;12.62;nan
6349;BME280;3207;42.648;23.406;2023-04-21T02:15:28;99857.88;;;12.66;nan
6349;BME280;3207;42.648;23.406;2023-04-21T02:17:55;99860.75;;;12.63;nan
6349;BME280;3207;42.648;23.406;2023-04-21T02:20:22;99863.91;;;12.57;nan
6349;BME280;3207;42.648;23.406;2023-04-21T02:22:48;99860.19;;;12.39;nan
6349;BME280;3207;42.648;23.406;2023-04-21T02:25:15;99855.78;;;12.39;nan
6349;BME280;3207;42.648;23.406;2023-04-21T02:27:42;99858.44;;;12.28;nan
6349;BME280;3207;42.648;23.406;2023-04-21T02:30:09;99852.88;;;12.22;nan
6349;BME280;3207;42.648;23.406;2023-04-21T02:32:37;99822.09;;;12.03;nan
6349;BME280;3207;42.648;23.406;2023-04-21T02:35:05;99844.22;;;12.10;nan
6349;BME280;3207;42.648;23.406;2023-04-21T02:37:32;99861.94;;;12.18;nan
6349;BME280;3207;42.648;23.406;2023-04-21T02:39:58;99851.13;;;12.11;nan
6349;BME280;3207;42.648;23.406;2023-04-21T02:42:25;99861.34;;;12.14;nan
6349;BME280;3207;42.648;23.406;2023-04-21T02:44:52;99837.75;;;11.93;nan
6349;BME280;3207;42.648;23.406;2023-04-21T02:47:19;99869.59;;;12.09;nan
6349;BME280;3207;42.648;23.406;2023-04-21T02:49:47;99866.09;;;12.20;nan
6349;BME280;3207;42.648;23.406;2023-04-21T02:52:14;99856.06;;;12.25;nan
6349;BME280;3207;42.648;23.406;2023-04-21T02:54:40;99858.91;;;12.33;nan
6349;BME280;3207;42.648;23.406;2023-04-21T02:57:07;99854.13;;;12.06;nan
6349;BME280;3207;42.648;23.406;2023-04-21T02:59:34;99852.34;;;12.07;nan
6349;BME280;3207;42.648;23.406;2023-04-21T03:02:01;99849.44;;;12.10;nan
6349;BME280;3207;42.648;23.406;2023-04-21T03:04:28;99854.44;;;12.13;nan
6349;BME280;3207;42.648;23.406;2023-04-21T03:06:58;99856.34;;;12.11;nan
6349;BME280;3207;42.648;23.406;2023-04-21T03:09:24;99844.13;;;12.00;nan
6349;BME280;3207;42.648;23.406;2023-04-21T03:11:51;99854.84;;;11.97;nan
6349;BME280;3207;42.648;23.406;2023-04-21T03:14:18;99864.53;;;11.97;nan
6349;BME280;3207;42.648;23.406;2023-04-21T03:16:45;99859.75;;;11.91;nan
6349;BME280;3207;42.648;23.406;2023-04-21T03:19:11;99860.28;;;11.85;nan
6349;BME280;3207;42.648;23.406;2023-04-21T03:21:38;99848.13;;;11.84;nan
6349;BME280;3207;42.648;23.406;2023-04-21T03:24:06;99853.25;;;11.85;nan
6349;BME280;3207;42.648;23.406;2023-04-21T03:26:33;99859.44;;;11.84;nan
6349;BME280;3207;42.648;23.406;2023-04-21T03:29:00;99854.44;;;11.81;nan
6349;BME280;3207;42.648;23.406;2023-04-21T03:31:27;99855.16;;;11.72;nan
6349;BME280;3207;42.648;23.406;2023-04-21T03:33:54;99858.72;;;11.71;nan
6349;BME280;3207;42.648;23.406;2023-04-21T03:36:20;99855.97;;;11.72;nan
6349;BME280;3207;42.648;23.406;2023-04-21T03:38:47;99856.47;;;11.78;nan
6349;BME280;3207;42.648;23.406;2023-04-21T03:41:15;99856.47;;;11.78;nan
6349;BME280;3207;42.648;23.406;2023-04-21T03:43:42;99861.22;;;11.72;nan
6349;BME280;3207;42.648;23.406;2023-04-21T03:46:16;99861.44;;;11.69;nan
6349;BME280;3207;42.648;23.406;2023-04-21T03:48:44;99865.75;;;11.59;nan
6349;BME280;3207;42.648;23.406;2023-04-21T03:51:10;99859.22;;;11.65;nan
6349;BME280;3207;42.648;23.406;2023-04-21T03:53:37;99862.41;;;11.68;nan
6349;BME280;3207;42.648;23.406;2023-04-21T03:56:04;99854.09;;;11.63;nan
6349;BME280;3207;42.648;23.406;2023-04-21T03:58:33;99869.31;;;11.58;nan
6349;BME280;3207;42.648;23.406;2023-04-21T04:01:00;99869.00;;;11.52;nan
6349;BME280;3207;42.648;23.406;2023-04-21T04:03:27;99863.75;;;11.52;nan
6349;BME280;3207;42.648;23.406;2023-04-21T04:05:53;99861.97;;;11.41;nan
6349;BME280;3207;42.648;23.406;2023-04-21T04:08:20;99867.22;;;11.30;nan
6349;BME280;3207;42.648;23.406;2023-04-21T04:10:47;99872.91;;;11.35;nan
6349;BME280;3207;42.648;23.406;2023-04-21T04:13:14;99874.13;;;11.42;nan
6349;BME280;3207;42.648;23.406;2023-04-21T04:15:42;99872.66;;;11.49;nan
6349;BME280;3207;42.648;23.406;2023-04-21T04:18:09;99874.44;;;11.49;nan
6349;BME280;3207;42.648;23.406;2023-04-21T04:20:36;99873.50;;;11.50;nan
6349;BME280;3207;42.648;23.406;2023-04-21T04:23:02;99850.44;;;11.21;nan
6349;BME280;3207;42.648;23.406;2023-04-21T04:25:29;99882.81;;;11.43;nan
6349;BME280;3207;42.648;23.406;2023-04-21T04:27:57;99877.06;;;11.37;nan
6349;BME280;3207;42.648;23.406;2023-04-21T04:30:25;99885.53;;;11.41;nan
6349;BME280;3207;42.648;23.406;2023-04-21T04:32:54;99873.84;;;11.34;nan
6349;BME280;3207;42.648;23.406;2023-04-21T04:35:23;99872.44;;;11.52;nan
6349;BME280;3207;42.648;23.406;2023-04-21T04:37:49;99890.03;;;11.50;nan
6349;BME280;3207;42.648;23.406;2023-04-21T04:40:17;99896.00;;;11.52;nan
6349;BME280;3207;42.648;23.406;2023-04-21T04:42:44;99889.53;;;11.67;nan
6349;BME280;3207;42.648;23.406;2023-04-21T04:45:13;99880.28;;;11.63;nan
6349;BME280;3207;42.648;23.406;2023-04-21T04:47:41;99884.06;;;11.70;nan
6349;BME280;3207;42.648;23.406;2023-04-21T04:50:10;99888.59;;;11.80;nan
6349;BME280;3207;42.648;23.406;2023-04-21T04:52:37;99882.88;;;11.86;nan
6349;BME280;3207;42.648;23.406;2023-04-21T04:55:05;99881.66;;;11.90;nan
6349;BME280;3207;42.648;23.406;2023-04-21T04:57:32;99885.47;;;11.97;nan
6349;BME280;3207;42.648;23.406;2023-04-21T04:59:59;99887.47;;;12.04;nan
6349;BME280;3207;42.648;23.406;2023-04-21T05:02:26;99886.56;;;11.94;nan
6349;BME280;3207;42.648;23.406;2023-04-21T05:04:52;99899.28;;;11.99;nan
6349;BME280;3207;42.648;23.406;2023-04-21T05:07:21;99897.97;;;12.04;nan
6349;BME280;3207;42.648;23.406;2023-04-21T05:09:47;99892.81;;;12.14;nan
6349;BME280;3207;42.648;23.406;2023-04-21T05:12:14;99903.53;;;12.11;nan
6349;BME280;3207;42.648;23.406;2023-04-21T05:14:41;99901.09;;;12.19;nan
6349;BME280;3207;42.648;23.406;2023-04-21T05:17:08;99907.75;;;12.34;nan
6349;BME280;3207;42.648;23.406;2023-04-21T05:19:35;99902.97;;;12.39;nan
6349;BME280;3207;42.648;23.406;2023-04-21T05:22:02;99905.47;;;12.62;nan
6349;BME280;3207;42.648;23.406;2023-04-21T05:24:32;99915.13;;;12.82;nan
6349;BME280;3207;42.648;23.406;2023-04-21T05:26:59;99911.88;;;12.90;nan
6349;BME280;3207;42.648;23.406;2023-04-21T05:29:27;99913.59;;;13.00;nan
6349;BME280;3207;42.648;23.406;2023-04-21T05:31:54;99909.19;;;13.01;nan
6349;BME280;3207;42.648;23.406;2023-04-21T05:34:20;99917.56;;;13.15;nan
6349;BME280;3207;42.648;23.406;2023-04-21T05:36:47;99915.91;;;13.14;nan
6349;BME280;3207;42.648;23.406;2023-04-21T05:39:14;99906.91;;;13.38;nan
6349;BME280;3207;42.648;23.406;2023-04-21T05:41:43;99917.91;;;13.52;nan
6349;BME280;3207;42.648;23.406;2023-04-21T05:44:10;99915.06;;;13.75;nan
6349;BME280;3207;42.648;23.406;2023-04-21T05:46:37;99923.00;;;14.04;nan
6349;BME280;3207;42.648;23.406;2023-04-21T05:49:03;99923.47;;;14.18;nan
6349;BME280;3207;42.648;23.406;2023-04-21T05:51:30;99934.56;;;14.41;nan
6349;BME280;3207;42.648;23.406;2023-04-21T05:53:57;99930.69;;;14.64;nan
6349;BME280;3207;42.648;23.406;2023-04-21T05:56:24;99929.44;;;14.88;nan
6349;BME280;3207;42.648;23.406;2023-04-21T05:58:52;99924.72;;;15.01;nan
6349;BME280;3207;42.648;23.406;2023-04-21T06:01:19;99930.34;;;15.16;nan
6349;BME280;3207;42.648;23.406;2023-04-21T06:03:46;99928.59;;;15.44;nan
6349;BME280;3207;42.648;23.406;2023-04-21T06:06:14;99929.03;;;15.76;nan
6349;BME280;3207;42.648;23.406;2023-04-21T06:08:41;99924.34;;;15.97;nan
6349;BME280;3207;42.648;23.406;2023-04-21T06:11:08;99924.00;;;16.28;nan
6349;BME280;3207;42.648;23.406;2023-04-21T06:13:35;99928.50;;;16.53;nan
6349;BME280;3207;42.648;23.406;2023-04-21T06:16:04;99937.66;;;16.76;nan
6349;BME280;3207;42.648;23.406;2023-04-21T06:18:31;99915.94;;;16.82;nan
6349;BME280;3207;42.648;23.406;2023-04-21T06:20:58;99930.53;;;17.20;nan
6349;BME280;3207;42.648;23.406;2023-04-21T06:23:25;99932.28;;;17.38;nan
6349;BME280;3207;42.648;23.406;2023-04-21T06:25:58;99895.75;;;17.25;nan
6349;BME280;3207;42.648;23.406;2023-04-21T06:28:28;99937.63;;;17.72;nan
6349;BME280;3207;42.648;23.406;2023-04-21T06:31:05;99929.75;;;17.88;nan
6349;BME280;3207;42.648;23.406;2023-04-21T06:33:34;99930.34;;;17.74;nan
6349;BME280;3207;42.648;23.406;2023-04-21T06:36:01;99938.38;;;17.90;nan
6349;BME280;3207;42.648;23.406;2023-04-21T06:38:27;99937.75;;;18.12;nan
6349;BME280;3207;42.648;23.406;2023-04-21T06:40:54;99940.50;;;18.53;nan
6349;BME280;3207;42.648;23.406;2023-04-21T06:43:21;99933.72;;;18.67;nan
6349;BME280;3207;42.648;23.406;2023-04-21T06:45:48;99936.53;;;18.97;nan
6349;BME280;3207;42.648;23.406;2023-04-21T06:48:16;99933.34;;;18.37;nan
6349;BME280;3207;42.648;23.406;2023-04-21T06:50:43;99937.16;;;18.43;nan
6349;BME280;3207;42.648;23.406;2023-04-21T06:53:10;99933.91;;;18.73;nan
6349;BME280;3207;42.648;23.406;2023-04-21T06:55:37;99942.47;;;19.24;nan
6349;BME280;3207;42.648;23.406;2023-04-21T06:58:04;99935.94;;;19.59;nan
6349;BME280;3207;42.648;23.406;2023-04-21T07:00:31;99937.88;;;20.04;nan
6349;BME280;3207;42.648;23.406;2023-04-21T07:02:58;99934.38;;;20.42;nan
6349;BME280;3207;42.648;23.406;2023-04-21T07:05:26;99934.47;;;20.72;nan
6349;BME280;3207;42.648;23.406;2023-04-21T07:07:53;99938.19;;;20.86;nan
6349;BME280;3207;42.648;23.406;2023-04-21T07:10:24;99931.16;;;20.93;nan
6349;BME280;3207;42.648;23.406;2023-04-21T07:12:51;99934.16;;;20.90;nan
6349;BME280;3207;42.648;23.406;2023-04-21T07:15:18;99933.69;;;21.24;nan
6349;BME280;3207;42.648;23.406;2023-04-21T07:17:44;99940.59;;;21.47;nan
6349;BME280;3207;42.648;23.406;2023-04-21T07:20:11;99946.91;;;21.90;nan
6349;BME280;3207;42.648;23.406;2023-04-21T07:22:39;99946.44;;;21.87;nan
6349;BME280;3207;42.648;23.406;2023-04-21T07:25:07;99946.09;;;22.26;nan
6349;BME280;3207;42.648;23.406;2023-04-21T07:27:34;99942.34;;;22.56;nan
6349;BME280;3207;42.648;23.406;2023-04-21T07:30:01;99945.06;;;22.63;nan
6349;BME280;3207;42.648;23.406;2023-04-21T07:32:28;99948.78;;;22.69;nan
6349;BME280;3207;42.648;23.406;2023-04-21T07:34:55;99945.25;;;22.83;nan
6349;BME280;3207;42.648;23.406;2023-04-21T07:37:23;99956.75;;;23.11;nan
6349;BME280;3207;42.648;23.406;2023-04-21T07:39:52;99953.47;;;23.37;nan
6349;BME280;3207;42.648;23.406;2023-04-21T07:42:19;99957.06;;;23.51;nan
6349;BME280;3207;42.648;23.406;2023-04-21T07:44:46;99957.59;;;23.74;nan
6349;BME280;3207;42.648;23.406;2023-04-21T07:47:13;99962.09;;;23.73;nan
6349;BME280;3207;42.648;23.406;2023-04-21T07:49:40;99962.53;;;23.77;nan
6349;BME280;3207;42.648;23.406;2023-04-21T07:52:07;99971.19;;;23.79;nan
6349;BME280;3207;42.648;23.406;2023-04-21T07:54:34;99965.66;;;23.87;nan
6349;BME280;3207;42.648;23.406;2023-04-21T07:57:02;99960.59;;;24.05;nan
6349;BME280;3207;42.648;23.406;2023-04-21T07:59:29;99968.34;;;24.41;nan
6349;BME280;3207;42.648;23.406;2023-04-21T08:01:56;99965.53;;;24.83;nan
6349;BME280;3207;42.648;23.406;2023-04-21T08:04:23;99959.16;;;24.84;nan
6349;BME280;3207;42.648;23.406;2023-04-21T08:06:50;99953.00;;;24.90;nan
6349;BME280;3207;42.648;23.406;2023-04-21T08:09:17;99952.63;;;25.19;nan
6349;BME280;3207;42.648;23.406;2023-04-21T08:11:46;99935.28;;;25.35;nan
6349;BME280;3207;42.648;23.406;2023-04-21T08:14:14;99963.63;;;25.82;nan
6349;BME280;3207;42.648;23.406;2023-04-21T08:16:41;99953.69;;;25.89;nan
6349;BME280;3207;42.648;23.406;2023-04-21T08:19:08;99957.41;;;25.95;nan
6349;BME280;3207;42.648;23.406;2023-04-21T08:21:36;99959.47;;;25.86;nan
6349;BME280;3207;42.648;23.406;2023-04-21T08:24:03;99937.94;;;26.12;nan
6349;BME280;3207;42.648;23.406;2023-04-21T08:26:30;99947.53;;;26.27;nan
6349;BME280;3207;42.648;23.406;2023-04-21T08:28:58;99955.28;;;25.97;nan
6349;BME280;3207;42.648;23.406;2023-04-21T08:31:27;99960.09;;;26.33;nan
6349;BME280;3207;42.648;23.406;2023-04-21T08:33:53;99957.22;;;26.34;nan
6349;BME280;3207;42.648;23.406;2023-04-21T08:36:20;99953.38;;;26.10;nan
6349;BME280;3207;42.648;23.406;2023-04-21T08:38:47;99956.31;;;26.47;nan
6349;BME280;3207;42.648;23.406;2023-04-21T08:41:15;99948.09;;;26.42;nan
6349;BME280;3207;42.648;23.406;2023-04-21T08:43:42;99945.31;;;26.86;nan
6349;BME280;3207;42.648;23.406;2023-04-21T08:46:09;99956.47;;;27.33;nan
6349;BME280;3207;42.648;23.406;2023-04-21T08:48:37;99948.44;;;27.51;nan
6349;BME280;3207;42.648;23.406;2023-04-21T08:51:06;99948.94;;;26.99;nan
6349;BME280;3207;42.648;23.406;2023-04-21T08:53:35;99941.41;;;26.82;nan
6349;BME280;3207;42.648;23.406;2023-04-21T08:56:02;99951.03;;;26.96;nan
6349;BME280;3207;42.648;23.406;2023-04-21T08:58:29;99941.75;;;26.92;nan
6349;BME280;3207;42.648;23.406;2023-04-21T09:00:56;99946.34;;;27.53;nan
6349;BME280;3207;42.648;23.406;2023-04-21T09:03:24;99955.66;;;27.51;nan
6349;BME280;3207;42.648;23.406;2023-04-21T09:06:00;99944.81;;;27.82;nan
6349;BME280;3207;42.648;23.406;2023-04-21T09:08:27;99947.91;;;27.97;nan
6349;BME280;3207;42.648;23.406;2023-04-21T09:10:56;99942.72;;;28.32;nan
6349;BME280;3207;42.648;23.406;2023-04-21T09:13:28;99946.00;;;28.76;nan
6349;BME280;3207;42.648;23.406;2023-04-21T09:15:55;99940.38;;;27.88;nan
6349;BME280;3207;42.648;23.406;2023-04-21T09:18:23;99934.81;;;28.19;nan
6349;BME280;3207;42.648;23.406;2023-04-21T09:20:51;99937.78;;;28.18;nan
6349;BME280;3207;42.648;23.406;2023-04-21T09:23:38;99930.28;;;28.73;nan
6349;BME280;3207;42.648;23.406;2023-04-21T09:26:06;99936.44;;;29.15;nan
6349;BME280;3207;42.648;23.406;2023-04-21T09:28:32;99941.78;;;28.68;nan
6349;BME280;3207;42.648;23.406;2023-04-21T09:30:59;99933.97;;;28.79;nan
6349;BME280;3207;42.648;23.406;2023-04-21T09:33:26;99925.31;;;28.88;nan
6349;BME280;3207;42.648;23.406;2023-04-21T09:35:53;99929.72;;;28.71;nan
6349;BME280;3207;42.648;23.406;2023-04-21T09:38:21;99930.25;;;28.91;nan
6349;BME280;3207;42.648;23.406;2023-04-21T09:40:56;99929.13;;;27.79;nan
6349;BME280;3207;42.648;23.406;2023-04-21T09:43:23;99920.34;;;28.20;nan
6349;BME280;3207;42.648;23.406;2023-04-21T09:45:51;99913.06;;;28.51;nan
6349;BME280;3207;42.648;23.406;2023-04-21T09:48:21;99920.09;;;27.74;nan
6349;BME280;3207;42.648;23.406;2023-04-21T09:50:50;99923.97;;;26.98;nan
6349;BME280;3207;42.648;23.406;2023-04-21T09:53:20;99914.63;;;27.25;nan
6349;BME280;3207;42.648;23.406;2023-04-21T09:55:50;99910.03;;;26.27;nan
6349;BME280;3207;42.648;23.406;2023-04-21T09:58:22;99916.34;;;26.39;nan
6349;BME280;3207;42.648;23.406;2023-04-21T10:00:54;99911.38;;;26.04;nan
6349;BME280;3207;42.648;23.406;2023-04-21T10:03:26;99913.50;;;25.18;nan
6349;BME280;3207;42.648;23.406;2023-04-21T10:05:53;99917.59;;;25.27;nan
6349;BME280;3207;42.648;23.406;2023-04-21T10:08:21;99902.69;;;25.71;nan
6349;BME280;3207;42.648;23.406;2023-04-21T10:10:48;99901.34;;;25.93;nan
6349;BME280;3207;42.648;23.406;2023-04-21T10:13:17;99902.69;;;26.09;nan
6349;BME280;3207;42.648;23.406;2023-04-21T10:15:46;99889.56;;;26.64;nan
6349;BME280;3207;42.648;23.406;2023-04-21T10:18:15;99895.94;;;26.69;nan
6349;BME280;3207;42.648;23.406;2023-04-21T10:20:53;99898.16;;;26.47;nan
6349;BME280;3207;42.648;23.406;2023-04-21T10:23:28;99898.00;;;26.67;nan
6349;BME280;3207;42.648;23.406;2023-04-21T10:26:00;99894.75;;;26.34;nan
6349;BME280;3207;42.648;23.406;2023-04-21T10:28:58;99890.31;;;26.46;nan
6349;BME280;3207;42.648;23.406;2023-04-21T10:31:31;99884.97;;;26.08;nan
6349;BME280;3207;42.648;23.406;2023-04-21T10:34:15;99884.13;;;26.70;nan
6349;BME280;3207;42.648;23.406;2023-04-21T10:36:47;99890.69;;;27.42;nan
6349;BME280;3207;42.648;23.406;2023-04-21T10:39:24;99885.00;;;27.50;nan
6349;BME280;3207;42.648;23.406;2023-04-21T10:41:54;99881.28;;;27.69;nan
6349;BME280;3207;42.648;23.406;2023-04-21T10:44:21;99880.47;;;27.69;nan
6349;BME280;3207;42.648;23.406;2023-04-21T10:46:53;99876.47;;;27.60;nan
6349;BME280;3207;42.648;23.406;2023-04-21T10:49:21;99868.25;;;27.73;nan
6349;BME280;3207;42.648;23.406;2023-04-21T10:52:05;99867.09;;;27.81;nan
6349;BME280;3207;42.648;23.406;2023-04-21T10:54:37;99876.75;;;27.70;nan
6349;BME280;3207;42.648;23.406;2023-04-21T10:57:08;99869.47;;;27.89;nan
6349;BME280;3207;42.648;23.406;2023-04-21T10:59:36;99875.38;;;28.09;nan
6349;BME280;3207;42.648;23.406;2023-04-21T11:02:05;99871.28;;;27.77;nan
6349;BME280;3207;42.648;23.406;2023-04-21T11:04:33;99864.13;;;27.71;nan
6349;BME280;3207;42.648;23.406;2023-04-21T11:07:05;99859.19;;;27.86;nan
6349;BME280;3207;42.648;23.406;2023-04-21T11:09:32;99863.31;;;28.00;nan
6349;BME280;3207;42.648;23.406;2023-04-21T11:11:59;99862.38;;;27.64;nan
6349;BME280;3207;42.648;23.406;2023-04-21T11:14:26;99849.78;;;27.77;nan
6349;BME280;3207;42.648;23.406;2023-04-21T11:16:54;99866.53;;;27.60;nan
6349;BME280;3207;42.648;23.406;2023-04-21T11:19:22;99856.88;;;27.34;nan
6349;BME280;3207;42.648;23.406;2023-04-21T11:21:50;99859.28;;;27.43;nan
6349;BME280;3207;42.648;23.406;2023-04-21T11:24:19;99864.63;;;27.24;nan
6349;BME280;3207;42.648;23.406;2023-04-21T11:26:46;99871.13;;;27.17;nan
6349;BME280;3207;42.648;23.406;2023-04-21T11:29:13;99849.59;;;26.80;nan
6349;BME280;3207;42.648;23.406;2023-04-21T11:31:41;99851.53;;;26.48;nan
6349;BME280;3207;42.648;23.406;2023-04-21T11:34:08;99853.97;;;26.50;nan
6349;BME280;3207;42.648;23.406;2023-04-21T11:36:38;99850.72;;;26.48;nan
6349;BME280;3207;42.648;23.406;2023-04-21T11:39:07;99851.66;;;26.29;nan
6349;BME280;3207;42.648;23.406;2023-04-21T11:41:35;99850.38;;;26.00;nan
6349;BME280;3207;42.648;23.406;2023-04-21T11:44:01;99842.78;;;25.52;nan
6349;BME280;3207;42.648;23.406;2023-04-21T11:46:28;99844.94;;;25.24;nan
6349;BME280;3207;42.648;23.406;2023-04-21T11:49:01;99845.50;;;25.32;nan
6349;BME280;3207;42.648;23.406;2023-04-21T11:51:32;99842.38;;;25.48;nan
6349;BME280;3207;42.648;23.406;2023-04-21T11:54:00;99844.06;;;25.36;nan
6349;BME280;3207;42.648;23.406;2023-04-21T11:56:27;99846.13;;;25.41;nan
6349;BME280;3207;42.648;23.406;2023-04-21T11:58:54;99840.84;;;25.21;nan
6349;BME280;3207;42.648;23.406;2023-04-21T12:01:21;99830.38;;;24.87;nan
6349;BME280;3207;42.648;23.406;2023-04-21T12:03:51;99829.38;;;24.48;nan
6349;BME280;3207;42.648;23.406;2023-04-21T12:06:22;99820.56;;;24.54;nan
6349;BME280;3207;42.648;23.406;2023-04-21T12:08:54;99826.28;;;24.51;nan
6349;BME280;3207;42.648;23.406;2023-04-21T12:11:23;99828.34;;;24.49;nan
6349;BME280;3207;42.648;23.406;2023-04-21T12:13:50;99815.19;;;24.54;nan
6349;BME280;3207;42.648;23.406;2023-04-21T12:16:17;99821.34;;;24.61;nan
6349;BME280;3207;42.648;23.406;2023-04-21T12:18:44;99829.16;;;24.83;nan
6349;BME280;3207;42.648;23.406;2023-04-21T12:21:14;99816.63;;;24.63;nan
6349;BME280;3207;42.648;23.406;2023-04-21T12:23:43;99819.94;;;24.52;nan
6349;BME280;3207;42.648;23.406;2023-04-21T12:26:10;99821.56;;;24.53;nan
6349;BME280;3207;42.648;23.406;2023-04-21T12:28:38;99813.13;;;24.50;nan
6349;BME280;3207;42.648;23.406;2023-04-21T12:31:05;99816.44;;;24.52;nan
6349;BME280;3207;42.648;23.406;2023-04-21T12:33:32;99808.44;;;24.45;nan
6349;BME280;3207;42.648;23.406;2023-04-21T12:35:59;99804.88;;;24.12;nan
6349;BME280;3207;42.648;23.406;2023-04-21T12:38:26;99809.19;;;24.06;nan
6349;BME280;3207;42.648;23.406;2023-04-21T12:40:53;99800.41;;;24.25;nan
6349;BME280;3207;42.648;23.406;2023-04-21T12:43:20;99802.00;;;24.20;nan
6349;BME280;3207;42.648;23.406;2023-04-21T12:45:48;99802.44;;;24.30;nan
6349;BME280;3207;42.648;23.406;2023-04-21T12:48:17;99797.91;;;24.37;nan
6349;BME280;3207;42.648;23.406;2023-04-21T12:50:43;99795.25;;;24.63;nan
6349;BME280;3207;42.648;23.406;2023-04-21T12:53:11;99791.28;;;24.86;nan
6349;BME280;3207;42.648;23.406;2023-04-21T12:55:38;99786.25;;;25.22;nan
6349;BME280;3207;42.648;23.406;2023-04-21T12:58:05;99789.25;;;25.45;nan
6349;BME280;3207;42.648;23.406;2023-04-21T13:00:32;99787.13;;;25.67;nan
6349;BME280;3207;42.648;23.406;2023-04-21T13:03:01;99790.81;;;25.66;nan
6349;BME280;3207;42.648;23.406;2023-04-21T13:05:28;99791.84;;;25.65;nan
6349;BME280;3207;42.648;23.406;2023-04-21T13:07:58;99782.31;;;25.76;nan
6349;BME280;3207;42.648;23.406;2023-04-21T13:10:25;99775.50;;;25.80;nan
6349;BME280;3207;42.648;23.406;2023-04-21T13:12:51;99774.13;;;25.71;nan
6349;BME280;3207;42.648;23.406;2023-04-21T13:15:18;99786.13;;;25.62;nan
6349;BME280;3207;42.648;23.406;2023-04-21T13:17:45;99780.66;;;26.06;nan
6349;BME280;3207;42.648;23.406;2023-04-21T13:20:14;99776.28;;;26.43;nan
6349;BME280;3207;42.648;23.406;2023-04-21T13:22:43;99770.84;;;26.50;nan
6349;BME280;3207;42.648;23.406;2023-04-21T13:25:10;99767.19;;;26.69;nan
6349;BME280;3207;42.648;23.406;2023-04-21T13:27:37;99778.78;;;26.63;nan
6349;BME280;3207;42.648;23.406;2023-04-21T13:30:06;99763.59;;;26.32;nan
6349;BME280;3207;42.648;23.406;2023-04-21T13:32:33;99763.03;;;26.23;nan
6349;BME280;3207;42.648;23.406;2023-04-21T13:35:00;99766.47;;;26.55;nan
6349;BME280;3207;42.648;23.406;2023-04-21T13:37:30;99764.44;;;26.51;nan